createdAt,value
2022-08-17T00:00:05.089Z,24.22
2022-08-17T00:02:25.571Z,24.23
2022-08-17T00:04:31.716Z,24.22
2022-08-17T00:06:37.034Z,24.21
2022-08-17T00:08:44.362Z,24.23
2022-08-17T00:10:50.394Z,24.23
2022-08-17T00:13:05.144Z,24.25
2022-08-17T00:15:15.341Z,24.26
2022-08-17T00:17:20.132Z,24.27
2022-08-17T00:19:34.340Z,24.27
2022-08-17T00:22:31.783Z,24.28
2022-08-17T00:24:12.490Z,24.29
2022-08-17T00:26:44.215Z,24.29
2022-08-17T00:28:43.845Z,24.28
2022-08-17T00:30:53.465Z,24.26
2022-08-17T00:33:15.526Z,24.25
2022-08-17T00:35:23.637Z,24.25
2022-08-17T00:37:31.308Z,24.21
2022-08-17T00:39:36.148Z,24.21
2022-08-17T00:41:42.530Z,24.19
2022-08-17T00:43:49.502Z,24.17
2022-08-17T00:45:55.176Z,24.14
2022-08-17T00:48:00.001Z,24.10
2022-08-17T00:50:07.832Z,24.06
2022-08-17T00:52:17.756Z,24.03
2022-08-17T00:54:25.251Z,24.01
2022-08-17T00:56:33.599Z,24.00
2022-08-17T00:58:38.851Z,24.00
2022-08-17T01:00:48.017Z,24.01
2022-08-17T01:02:54.756Z,24.04
2022-08-17T01:04:59.914Z,24.05
2022-08-17T01:07:06.310Z,24.08
2022-08-17T01:09:11.253Z,24.10
2022-08-17T01:11:16.124Z,24.10
2022-08-17T01:13:21.835Z,24.09
2022-08-17T01:15:27.068Z,24.07
2022-08-17T01:17:32.953Z,24.05
2022-08-17T01:19:40.306Z,24.04
2022-08-17T01:21:50.655Z,24.02
2022-08-17T01:23:56.388Z,24.02
2022-08-17T01:26:03.214Z,24.02
2022-08-17T01:28:11.089Z,24.02
2022-08-17T01:30:57.437Z,24.03
2022-08-17T01:33:04.273Z,24.04
2022-08-17T01:35:10.358Z,24.05
2022-08-17T01:37:16.027Z,24.05
2022-08-17T01:39:33.077Z,24.05
2022-08-17T01:41:40.147Z,24.02
2022-08-17T01:43:49.217Z,23.98
2022-08-17T01:46:02.829Z,23.95
2022-08-17T01:48:09.589Z,23.93
2022-08-17T01:50:18.714Z,23.91
2022-08-17T01:52:25.171Z,23.91
2022-08-17T01:54:29.996Z,23.87
2022-08-17T01:56:37.575Z,23.86
2022-08-17T01:58:43.747Z,23.84
2022-08-17T02:01:00.982Z,23.83
2022-08-17T02:03:09.379Z,23.79
2022-08-17T02:05:14.322Z,23.76
2022-08-17T02:07:19.270Z,23.77
2022-08-17T02:09:31.593Z,23.77
2022-08-17T02:11:38.700Z,23.77
2022-08-17T02:13:44.756Z,23.77
2022-08-17T02:15:49.506Z,23.76
2022-08-17T02:17:54.552Z,23.68
2022-08-17T02:19:59.688Z,23.62
2022-08-17T02:22:04.879Z,23.56
2022-08-17T02:24:13.255Z,23.50
2022-08-17T02:26:25.726Z,23.44
2022-08-17T02:28:31.148Z,23.37
2022-08-17T02:31:02.049Z,23.29
2022-08-17T02:33:04.150Z,23.24
2022-08-17T02:35:11.165Z,23.21
2022-08-17T02:37:16.328Z,23.19
2022-08-17T02:39:21.110Z,23.18
2022-08-17T02:41:25.911Z,23.13
2022-08-17T02:43:30.720Z,23.08
2022-08-17T02:45:35.921Z,23.03
2022-08-17T02:47:41.883Z,22.94
2022-08-17T02:49:49.413Z,22.86
2022-08-17T02:52:02.482Z,22.78
2022-08-17T02:54:40.104Z,22.70
2022-08-17T02:56:32.083Z,22.63
2022-08-17T02:58:37.092Z,22.59
2022-08-17T03:00:45.451Z,22.56
2022-08-17T03:02:51.180Z,22.55
2022-08-17T03:04:56.093Z,22.55
2022-08-17T03:07:01.089Z,22.53
2022-08-17T03:09:06.374Z,22.56
2022-08-17T03:11:11.565Z,22.57
2022-08-17T03:13:16.382Z,22.57
2022-08-17T03:15:28.720Z,22.55
2022-08-17T03:17:36.877Z,22.54
2022-08-17T03:19:42.923Z,22.50
2022-08-17T03:21:54.762Z,22.45
2022-08-17T03:24:00.056Z,22.40
2022-08-17T03:26:05.005Z,22.35
2022-08-17T03:28:17.099Z,22.31
2022-08-17T03:30:22.957Z,22.27
2022-08-17T03:32:31.293Z,22.24
2022-08-17T03:34:36.110Z,22.21
2022-08-17T03:36:40.800Z,22.19
2022-08-17T03:38:45.739Z,22.19
2022-08-17T03:40:56.997Z,22.17
2022-08-17T03:43:09.327Z,22.17
2022-08-17T03:45:16.087Z,22.16
2022-08-17T03:47:26.858Z,22.13
2022-08-17T03:49:31.597Z,22.09
2022-08-17T03:51:36.351Z,22.07
2022-08-17T03:53:50.891Z,22.07
2022-08-17T03:56:00.637Z,22.08
2022-08-17T03:58:05.409Z,22.11
2022-08-17T04:00:11.681Z,22.12
2022-08-17T04:02:26.173Z,22.12
2022-08-17T04:04:31.013Z,22.10
2022-08-17T04:06:35.887Z,22.07
2022-08-17T04:08:40.614Z,22.02
2022-08-17T04:10:45.508Z,21.99
2022-08-17T04:12:52.912Z,21.97
2022-08-17T04:14:58.109Z,21.95
2022-08-17T04:17:02.863Z,21.93
2022-08-17T04:19:07.893Z,21.93
2022-08-17T04:21:12.713Z,21.95
2022-08-17T04:23:20.645Z,21.95
2022-08-17T04:25:26.213Z,21.94
2022-08-17T04:27:31.015Z,21.93
2022-08-17T04:29:54.779Z,21.91
2022-08-17T04:32:01.829Z,21.92
2022-08-17T04:34:09.451Z,21.93
2022-08-17T04:36:15.643Z,21.94
2022-08-17T04:38:23.483Z,21.97
2022-08-17T04:40:28.790Z,22.00
2022-08-17T04:42:33.524Z,22.05
2022-08-17T04:44:38.268Z,22.11
2022-08-17T04:46:44.464Z,22.19
2022-08-17T04:48:51.047Z,22.24
2022-08-17T04:50:55.920Z,22.30
2022-08-17T04:53:01.099Z,22.36
2022-08-17T04:55:07.449Z,22.39
2022-08-17T04:57:12.120Z,22.43
2022-08-17T04:59:19.420Z,22.51
2022-08-17T05:01:26.133Z,22.57
2022-08-17T05:03:32.754Z,22.65
2022-08-17T05:05:43.795Z,22.71
2022-08-17T05:07:55.108Z,22.76
2022-08-17T05:09:59.977Z,22.84
2022-08-17T05:12:08.371Z,22.89
2022-08-17T05:14:13.865Z,22.95
2022-08-17T05:16:19.979Z,23.01
2022-08-17T05:18:25.554Z,23.07
2022-08-17T05:20:30.763Z,23.16
2022-08-17T05:22:35.435Z,23.18
2022-08-17T05:24:50.439Z,23.17
2022-08-17T05:27:02.608Z,23.15
2022-08-17T05:29:11.445Z,23.17
2022-08-17T05:31:17.113Z,23.19
2022-08-17T05:33:24.203Z,23.22
2022-08-17T05:35:30.549Z,23.28
2022-08-17T05:37:40.682Z,23.34
2022-08-17T05:39:45.452Z,23.42
2022-08-17T05:41:50.134Z,23.51
2022-08-17T05:43:56.495Z,23.64
2022-08-17T05:46:06.192Z,23.73
2022-08-17T05:48:11.053Z,23.82
2022-08-17T05:50:27.090Z,23.88
2022-08-17T05:52:42.949Z,23.95
2022-08-17T05:55:01.308Z,24.03
2022-08-17T05:57:26.094Z,24.07
2022-08-17T05:59:44.605Z,24.14
2022-08-17T06:01:58.194Z,24.23
2022-08-17T06:04:16.554Z,24.25
2022-08-17T06:06:35.650Z,24.24
2022-08-17T06:08:51.528Z,24.25
2022-08-17T06:11:06.884Z,24.28
2022-08-17T06:13:18.497Z,24.32
2022-08-17T06:15:32.506Z,24.37
2022-08-17T06:17:38.016Z,24.41
2022-08-17T06:19:47.364Z,24.46
2022-08-17T06:21:54.940Z,24.53
2022-08-17T06:24:05.998Z,24.60
2022-08-17T06:26:16.129Z,24.70
2022-08-17T06:28:27.562Z,24.79
2022-08-17T06:30:59.406Z,24.88
2022-08-17T06:33:12.930Z,24.97
2022-08-17T06:35:32.019Z,25.05
2022-08-17T06:37:55.896Z,25.16
2022-08-17T06:40:14.609Z,25.24
2022-08-17T06:43:02.864Z,25.32
2022-08-17T06:45:08.643Z,25.42
2022-08-17T06:47:28.150Z,25.51
2022-08-17T06:49:45.594Z,25.64
2022-08-17T06:51:54.414Z,25.75
2022-08-17T06:54:07.109Z,25.85
2022-08-17T06:56:14.039Z,25.94
2022-08-17T06:58:23.581Z,26.05
2022-08-17T07:00:43.074Z,26.18
2022-08-17T07:02:53.542Z,26.29
2022-08-17T07:05:00.847Z,26.36
2022-08-17T07:07:10.481Z,26.46
2022-08-17T07:09:26.154Z,26.53
2022-08-17T07:11:37.698Z,26.59
2022-08-17T07:13:51.447Z,26.69
2022-08-17T07:16:04.820Z,26.80
2022-08-17T07:18:10.365Z,26.90
2022-08-17T07:20:18.464Z,26.99
2022-08-17T07:22:57.730Z,27.07
2022-08-17T07:25:04.894Z,27.20
2022-08-17T07:27:13.982Z,27.30
2022-08-17T07:29:20.063Z,27.34
2022-08-17T07:31:27.443Z,27.38
2022-08-17T07:33:35.283Z,27.42
2022-08-17T07:35:44.072Z,27.50
2022-08-17T07:38:25.370Z,27.55
2022-08-17T07:40:34.693Z,27.57
2022-08-17T07:42:43.121Z,27.60
2022-08-17T07:44:53.898Z,27.65
2022-08-17T07:46:59.234Z,27.70
2022-08-17T07:49:25.269Z,27.76
2022-08-17T07:51:40.688Z,27.84
2022-08-17T07:53:45.511Z,27.90
2022-08-17T07:55:51.401Z,27.94
2022-08-17T07:58:00.860Z,27.96
2022-08-17T08:00:18.503Z,28.02
2022-08-17T08:02:33.687Z,28.11
2022-08-17T08:04:59.589Z,28.15
2022-08-17T08:07:12.010Z,28.17
2022-08-17T08:09:35.297Z,28.20
2022-08-17T08:11:44.132Z,28.28
2022-08-17T08:13:49.193Z,28.33
2022-08-17T08:15:55.660Z,28.34
2022-08-17T08:18:02.376Z,28.37
2022-08-17T08:20:37.750Z,28.40
2022-08-17T08:22:55.952Z,28.39
2022-08-17T08:25:11.747Z,28.42
2022-08-17T08:27:26.253Z,28.47
2022-08-17T08:29:44.069Z,28.53
2022-08-17T08:32:11.934Z,28.63
2022-08-17T08:35:00.559Z,28.70
2022-08-17T08:37:15.419Z,28.77
2022-08-17T08:39:31.015Z,28.87
2022-08-17T08:41:46.319Z,28.92
2022-08-17T08:44:02.130Z,28.91
2022-08-17T08:46:19.973Z,28.90
2022-08-17T08:48:53.026Z,28.91
2022-08-17T08:51:10.030Z,28.91
2022-08-17T08:53:28.022Z,28.98
2022-08-17T08:55:45.161Z,29.09
2022-08-17T08:57:57.507Z,29.17
2022-08-17T09:00:19.752Z,29.24
2022-08-17T09:02:40.842Z,29.29
2022-08-17T09:05:13.822Z,29.38
2022-08-17T09:07:31.305Z,29.50
2022-08-17T09:09:49.540Z,29.52
2022-08-17T09:12:05.367Z,29.54
2022-08-17T09:14:21.459Z,29.61
2022-08-17T09:16:33.399Z,29.72
2022-08-17T09:19:03.583Z,29.81
2022-08-17T09:21:18.221Z,29.92
2022-08-17T09:23:32.349Z,30.02
2022-08-17T09:25:47.047Z,30.11
2022-08-17T09:27:56.425Z,30.17
2022-08-17T09:30:11.081Z,30.20
2022-08-17T09:32:22.507Z,30.16
2022-08-17T09:34:35.322Z,30.18
2022-08-17T09:36:50.135Z,30.24
2022-08-17T09:39:01.949Z,30.24
2022-08-17T09:41:15.282Z,30.25
2022-08-17T09:43:27.946Z,30.31
2022-08-17T09:45:40.624Z,30.36
2022-08-17T09:47:52.093Z,30.42
2022-08-17T09:50:02.612Z,30.45
2022-08-17T09:52:14.574Z,30.46
2022-08-17T09:54:44.542Z,30.48
2022-08-17T09:57:28.085Z,30.50
2022-08-17T09:59:44.565Z,30.57
2022-08-17T10:01:55.652Z,30.58
2022-08-17T10:04:16.144Z,30.62
2022-08-17T10:06:35.138Z,30.66
2022-08-17T10:08:44.905Z,30.70
2022-08-17T10:11:03.176Z,30.77
2022-08-17T10:13:21.164Z,30.84
2022-08-17T10:15:49.125Z,30.91
2022-08-17T10:18:16.287Z,30.94
2022-08-17T10:20:28.157Z,30.99
2022-08-17T10:22:38.334Z,31.07
2022-08-17T10:25:21.881Z,31.12
2022-08-17T10:27:17.501Z,31.16
2022-08-17T10:29:26.969Z,31.25
2022-08-17T10:31:41.609Z,31.39
2022-08-17T10:33:55.907Z,31.46
2022-08-17T10:36:10.794Z,31.53
2022-08-17T10:38:39.042Z,31.58
2022-08-17T10:40:54.317Z,31.66
2022-08-17T10:43:05.213Z,31.73
2022-08-17T10:45:19.509Z,31.81
2022-08-17T10:47:25.997Z,31.90
2022-08-17T10:49:34.274Z,31.92
2022-08-17T10:51:41.080Z,31.90
2022-08-17T10:53:59.737Z,31.86
2022-08-17T10:56:23.743Z,31.84
2022-08-17T10:58:47.475Z,31.82
2022-08-17T11:01:01.393Z,31.78
2022-08-17T11:03:18.728Z,31.81
2022-08-17T11:05:57.257Z,31.85
2022-08-17T11:08:35.246Z,31.93
2022-08-17T11:11:08.727Z,31.97
2022-08-17T11:13:24.145Z,31.93
2022-08-17T11:15:42.182Z,31.96
2022-08-17T11:18:01.316Z,32.06
2022-08-17T11:20:21.135Z,32.17
2022-08-17T11:22:56.487Z,32.25
2022-08-17T11:25:15.638Z,32.30
2022-08-17T11:27:29.696Z,32.36
2022-08-17T11:29:38.708Z,32.39
2022-08-17T11:31:56.798Z,32.44
2022-08-17T11:34:12.747Z,32.53
2022-08-17T11:36:33.888Z,32.60
2022-08-17T11:38:51.012Z,32.69
2022-08-17T11:41:11.433Z,32.79
2022-08-17T11:43:43.105Z,32.89
2022-08-17T11:46:00.097Z,32.96
2022-08-17T11:48:27.678Z,33.00
2022-08-17T11:50:46.517Z,33.07
2022-08-17T11:53:00.307Z,33.17
2022-08-17T11:55:33.520Z,33.23
2022-08-17T11:57:59.796Z,33.29
2022-08-17T12:00:08.609Z,33.29
2022-08-17T12:02:48.383Z,33.24
2022-08-17T12:05:23.675Z,33.23
2022-08-17T12:07:31.046Z,33.29
2022-08-17T12:09:43.750Z,33.35
2022-08-17T12:12:11.927Z,33.36
2022-08-17T12:14:32.234Z,33.34
2022-08-17T12:16:57.300Z,33.34
2022-08-17T12:19:04.345Z,33.38
2022-08-17T12:21:42.793Z,33.43
2022-08-17T12:23:56.066Z,33.39
2022-08-17T12:26:09.954Z,33.39
2022-08-17T12:28:39.037Z,33.43
2022-08-17T12:30:56.475Z,33.47
2022-08-17T12:33:01.637Z,33.55
2022-08-17T12:35:18.983Z,33.63
2022-08-17T12:37:26.861Z,33.65
2022-08-17T12:39:34.051Z,33.64
2022-08-17T12:41:41.496Z,33.69
2022-08-17T12:43:57.837Z,33.66
2022-08-17T12:46:13.102Z,33.67
2022-08-17T12:48:26.000Z,33.77
2022-08-17T12:50:30.742Z,33.92
2022-08-17T12:52:40.086Z,33.96
2022-08-17T12:54:53.170Z,33.91
2022-08-17T12:57:14.391Z,33.90
2022-08-17T12:59:29.919Z,33.88
2022-08-17T13:01:40.881Z,33.81
2022-08-17T13:03:51.226Z,33.78
2022-08-17T13:06:02.617Z,33.75
2022-08-17T13:08:16.597Z,33.76
2022-08-17T13:10:31.618Z,33.80
2022-08-17T13:12:38.956Z,33.88
2022-08-17T13:14:48.715Z,34.01
2022-08-17T13:16:56.142Z,34.15
2022-08-17T13:19:12.428Z,34.24
2022-08-17T13:21:27.694Z,34.29
2022-08-17T13:23:34.215Z,34.33
2022-08-17T13:25:40.223Z,34.42
2022-08-17T13:27:52.537Z,34.54
2022-08-17T13:30:00.944Z,34.68
2022-08-17T13:32:20.137Z,34.77
2022-08-17T13:35:12.835Z,34.82
2022-08-17T13:37:30.375Z,34.79
2022-08-17T13:39:44.000Z,34.78
2022-08-17T13:41:50.313Z,34.69
2022-08-17T13:43:55.116Z,34.62
2022-08-17T13:46:10.543Z,34.60
2022-08-17T13:48:28.067Z,34.56
2022-08-17T13:50:36.958Z,34.50
2022-08-17T13:52:48.809Z,34.47
2022-08-17T13:54:59.221Z,34.42
2022-08-17T13:57:06.857Z,34.40
2022-08-17T13:59:15.081Z,34.47
2022-08-17T14:01:34.997Z,34.56
2022-08-17T14:03:39.751Z,34.68
2022-08-17T14:05:48.524Z,34.78
2022-08-17T14:07:57.194Z,34.84
2022-08-17T14:10:05.148Z,34.86
2022-08-17T14:12:13.357Z,34.85
2022-08-17T14:14:19.145Z,34.75
2022-08-17T14:16:23.848Z,34.64
2022-08-17T14:18:54.312Z,34.55
2022-08-17T14:20:54.715Z,34.53
2022-08-17T14:22:59.470Z,34.55
2022-08-17T14:25:05.009Z,34.61
2022-08-17T14:27:13.475Z,34.67
2022-08-17T14:29:18.230Z,34.70
2022-08-17T14:31:26.942Z,34.67
2022-08-17T14:33:31.780Z,34.49
2022-08-17T14:35:36.560Z,34.40
2022-08-17T14:37:41.824Z,34.37
2022-08-17T14:39:47.084Z,34.37
2022-08-17T14:41:51.959Z,34.35
2022-08-17T14:43:57.693Z,34.36
2022-08-17T14:46:02.941Z,34.37
2022-08-17T14:48:08.196Z,34.36
2022-08-17T14:50:15.377Z,34.34
2022-08-17T14:52:24.505Z,34.31
2022-08-17T14:54:33.858Z,34.30
2022-08-17T14:56:39.249Z,34.30
2022-08-17T14:58:44.283Z,34.27
2022-08-17T15:00:51.948Z,34.28
2022-08-17T15:02:59.741Z,34.30
2022-08-17T15:05:06.629Z,34.31
2022-08-17T15:07:14.115Z,34.34
2022-08-17T15:09:18.925Z,34.35
2022-08-17T15:11:26.805Z,34.34
2022-08-17T15:13:32.138Z,34.35
2022-08-17T15:15:36.871Z,34.33
2022-08-17T15:17:44.644Z,34.28
2022-08-17T15:19:50.656Z,34.23
2022-08-17T15:21:55.614Z,34.20
2022-08-17T15:24:00.522Z,34.18
2022-08-17T15:26:08.261Z,34.15
2022-08-17T15:28:13.524Z,34.18
2022-08-17T15:30:19.423Z,34.21
2022-08-17T15:32:29.488Z,34.24
2022-08-17T15:34:34.217Z,34.28
2022-08-17T15:36:39.163Z,34.32
2022-08-17T15:38:54.629Z,34.35
2022-08-17T15:41:00.007Z,34.35
2022-08-17T15:43:08.076Z,34.31
2022-08-17T15:45:14.859Z,34.24
2022-08-17T15:47:20.862Z,34.16
2022-08-17T15:49:25.781Z,34.07
2022-08-17T15:51:32.883Z,34.00
2022-08-17T15:53:38.564Z,33.92
2022-08-17T15:55:43.246Z,33.87
2022-08-17T15:57:47.965Z,33.87
2022-08-17T15:59:55.087Z,33.87
2022-08-17T16:03:12.996Z,33.88
2022-08-17T16:04:43.883Z,33.90
2022-08-17T16:06:51.699Z,33.88
2022-08-17T16:08:57.088Z,33.87
2022-08-17T16:11:02.454Z,33.88
2022-08-17T16:13:17.163Z,33.89
2022-08-17T16:15:22.976Z,33.95
2022-08-17T16:17:39.098Z,33.96
2022-08-17T16:19:48.605Z,33.96
2022-08-17T16:21:53.353Z,33.95
2022-08-17T16:24:00.847Z,33.93
2022-08-17T16:26:05.802Z,33.87
2022-08-17T16:28:10.930Z,33.82
2022-08-17T16:30:18.181Z,33.82
2022-08-17T16:32:31.847Z,33.79
2022-08-17T16:34:40.701Z,33.77
2022-08-17T16:36:51.803Z,33.76
2022-08-17T16:39:00.586Z,33.74
2022-08-17T16:41:06.368Z,33.70
2022-08-17T16:43:11.270Z,33.64
2022-08-17T16:45:19.715Z,33.60
2022-08-17T16:47:24.641Z,33.60
2022-08-17T16:49:37.117Z,33.59
2022-08-17T16:51:42.860Z,33.57
2022-08-17T16:53:47.903Z,33.53
2022-08-17T16:56:04.522Z,33.49
2022-08-17T16:58:09.525Z,33.46
2022-08-17T17:00:21.184Z,33.43
2022-08-17T17:02:36.104Z,33.40
2022-08-17T17:04:46.015Z,33.35
2022-08-17T17:06:59.240Z,33.31
2022-08-17T17:09:10.590Z,33.27
2022-08-17T17:11:21.565Z,33.22
2022-08-17T17:13:31.093Z,33.16
2022-08-17T17:15:46.367Z,33.12
2022-08-17T17:17:52.557Z,33.08
2022-08-17T17:20:05.990Z,33.03
2022-08-17T17:22:16.053Z,32.99
2022-08-17T17:24:32.980Z,32.95
2022-08-17T17:26:53.244Z,32.89
2022-08-17T17:29:12.348Z,32.86
2022-08-17T17:31:20.465Z,32.83
2022-08-17T17:33:36.133Z,32.80
2022-08-17T17:35:48.206Z,32.78
2022-08-17T17:37:59.383Z,32.76
2022-08-17T17:40:12.444Z,32.73
2022-08-17T17:42:21.582Z,32.69
2022-08-17T17:44:30.186Z,32.64
2022-08-17T17:46:38.309Z,32.64
2022-08-17T17:48:43.199Z,32.63
2022-08-17T17:50:54.168Z,32.60
2022-08-17T17:53:05.293Z,32.56
2022-08-17T17:55:21.710Z,32.52
2022-08-17T17:57:35.516Z,32.44
2022-08-17T17:59:50.079Z,32.36
2022-08-17T18:02:05.046Z,32.26
2022-08-17T18:04:25.389Z,32.21
2022-08-17T18:06:41.942Z,32.15
2022-08-17T18:09:04.598Z,32.07
2022-08-17T18:11:24.173Z,32.00
2022-08-17T18:13:40.858Z,31.94
2022-08-17T18:15:47.930Z,31.89
2022-08-17T18:18:20.244Z,31.84
2022-08-17T18:20:36.069Z,31.77
2022-08-17T18:22:50.412Z,31.71
2022-08-17T18:24:56.492Z,31.67
2022-08-17T18:27:02.890Z,31.67
2022-08-17T18:29:28.692Z,31.62
2022-08-17T18:31:33.565Z,31.57
2022-08-17T18:33:40.320Z,31.51
2022-08-17T18:35:59.217Z,31.46
2022-08-17T18:38:27.561Z,31.42
2022-08-17T18:40:41.551Z,31.37
2022-08-17T18:42:57.210Z,31.34
2022-08-17T18:45:02.306Z,31.28
2022-08-17T18:47:20.597Z,31.23
2022-08-17T18:49:29.030Z,31.18
2022-08-17T18:51:40.260Z,31.12
2022-08-17T18:54:05.537Z,31.05
2022-08-17T18:56:39.285Z,31.00
2022-08-17T18:58:58.616Z,30.96
2022-08-17T19:01:12.594Z,30.91
2022-08-17T19:03:26.189Z,30.84
2022-08-17T19:05:38.833Z,30.77
2022-08-17T19:07:46.906Z,30.70
2022-08-17T19:09:56.816Z,30.64
2022-08-17T19:12:04.943Z,30.59
2022-08-17T19:14:13.506Z,30.55
2022-08-17T19:16:24.931Z,30.52
2022-08-17T19:18:34.653Z,30.49
2022-08-17T19:20:46.152Z,30.46
2022-08-17T19:23:13.694Z,30.45
2022-08-17T19:25:22.856Z,30.45
2022-08-17T19:27:41.868Z,30.44
2022-08-17T19:29:56.569Z,30.44
2022-08-17T19:32:01.656Z,30.45
2022-08-17T19:34:06.685Z,30.44
2022-08-17T19:36:27.853Z,30.44
2022-08-17T19:38:40.562Z,30.38
2022-08-17T19:41:01.884Z,30.32
2022-08-17T19:43:16.699Z,30.29
2022-08-17T19:45:34.487Z,30.27
2022-08-17T19:47:55.139Z,30.25
2022-08-17T19:50:08.932Z,30.20
2022-08-17T19:52:35.897Z,30.10
2022-08-17T19:54:53.270Z,30.00
2022-08-17T19:57:04.853Z,29.92
2022-08-17T19:59:16.327Z,29.85
2022-08-17T20:01:31.178Z,29.81
2022-08-17T20:03:54.249Z,29.77
2022-08-17T20:06:12.920Z,29.70
2022-08-17T20:08:23.412Z,29.62
2022-08-17T20:10:44.280Z,29.58
2022-08-17T20:12:56.353Z,29.53
2022-08-17T20:15:08.724Z,29.47
2022-08-17T20:17:14.440Z,29.43
2022-08-17T20:19:27.907Z,29.39
2022-08-17T20:21:39.239Z,29.35
2022-08-17T20:23:56.426Z,29.32
2022-08-17T20:26:15.926Z,29.29
2022-08-17T20:28:28.390Z,29.24
2022-08-17T20:30:36.835Z,29.21
2022-08-17T20:32:55.103Z,29.20
2022-08-17T20:35:24.845Z,29.17
2022-08-17T20:37:33.448Z,29.15
2022-08-17T20:39:41.259Z,29.14
2022-08-17T20:42:18.606Z,29.13
2022-08-17T20:44:33.977Z,29.09
2022-08-17T20:46:56.897Z,29.08
2022-08-17T20:49:20.022Z,29.08
2022-08-17T20:51:32.779Z,29.09
2022-08-17T20:54:26.489Z,29.08
2022-08-17T20:56:53.760Z,29.08
2022-08-17T20:58:58.751Z,29.03
2022-08-17T21:01:13.971Z,28.94
2022-08-17T21:03:51.804Z,28.85
2022-08-17T21:06:03.395Z,28.76
2022-08-17T21:08:28.779Z,28.67
2022-08-17T21:10:38.316Z,28.59
2022-08-17T21:12:55.958Z,28.55
2022-08-17T21:15:07.008Z,28.49
2022-08-17T21:17:36.667Z,28.46
2022-08-17T21:20:10.407Z,28.41
2022-08-17T21:22:28.560Z,28.37
2022-08-17T21:24:51.424Z,28.31
2022-08-17T21:27:04.337Z,28.25
2022-08-17T21:29:30.970Z,28.20
2022-08-17T21:31:42.684Z,28.09
2022-08-17T21:34:27.084Z,28.00
2022-08-17T21:36:32.163Z,27.89
2022-08-17T21:38:40.858Z,27.83
2022-08-17T21:40:49.305Z,27.81
2022-08-17T21:42:57.732Z,27.80
2022-08-17T21:45:10.891Z,27.77
2022-08-17T21:47:22.070Z,27.71
2022-08-17T21:49:29.244Z,27.65
2022-08-17T21:51:47.034Z,27.63
2022-08-17T21:53:57.056Z,27.60
2022-08-17T21:56:02.732Z,27.55
2022-08-17T21:58:27.499Z,27.51
2022-08-17T22:00:34.412Z,27.46
2022-08-17T22:02:41.167Z,27.40
2022-08-17T22:04:58.635Z,27.37
2022-08-17T22:07:06.682Z,27.32
2022-08-17T22:09:22.200Z,27.28
2022-08-17T22:11:27.173Z,27.25
2022-08-17T22:13:32.792Z,27.24
2022-08-17T22:15:39.866Z,27.22
2022-08-17T22:17:47.918Z,27.16
2022-08-17T22:19:55.301Z,27.12
2022-08-17T22:22:07.802Z,27.09
2022-08-17T22:24:19.900Z,27.09
2022-08-17T22:26:47.143Z,27.11
2022-08-17T22:28:57.758Z,27.08
2022-08-17T22:31:04.438Z,27.06
2022-08-17T22:33:38.744Z,27.04
2022-08-17T22:35:43.991Z,27.04
2022-08-17T22:37:48.868Z,27.06
2022-08-17T22:40:00.576Z,27.07
2022-08-17T22:42:13.361Z,27.06
2022-08-17T22:44:22.388Z,27.02
2022-08-17T22:46:27.374Z,26.99
2022-08-17T22:48:37.974Z,26.99
2022-08-17T22:50:42.777Z,26.98
2022-08-17T22:52:58.327Z,26.98
2022-08-17T22:55:12.082Z,26.98
2022-08-17T22:57:18.916Z,26.95
2022-08-17T22:59:42.976Z,26.91
2022-08-17T23:02:11.118Z,26.88
2022-08-17T23:04:33.494Z,26.84
2022-08-17T23:06:40.597Z,26.81
2022-08-17T23:08:45.386Z,26.79
2022-08-17T23:10:52.920Z,26.78
2022-08-17T23:12:59.660Z,26.78
2022-08-17T23:15:10.866Z,26.76
2022-08-17T23:17:15.573Z,26.74
2022-08-17T23:19:22.255Z,26.71
2022-08-17T23:21:28.727Z,26.66
2022-08-17T23:23:34.068Z,26.60
2022-08-17T23:25:38.942Z,26.57
2022-08-17T23:27:43.781Z,26.54
2022-08-17T23:29:48.651Z,26.50
2022-08-17T23:31:53.965Z,26.46
2022-08-17T23:33:59.165Z,26.43
2022-08-17T23:36:04.719Z,26.42
2022-08-17T23:38:10.643Z,26.41
2022-08-17T23:40:15.674Z,26.39
2022-08-17T23:42:23.659Z,26.38
2022-08-17T23:44:29.127Z,26.37
2022-08-17T23:46:33.947Z,26.36
2022-08-17T23:48:39.526Z,26.35
2022-08-17T23:50:44.501Z,26.35
2022-08-17T23:52:49.268Z,26.36
2022-08-17T23:54:54.117Z,26.36
2022-08-17T23:56:58.909Z,26.35
2022-08-17T23:59:03.925Z,26.32
